Relevés horaires Matro (Suisse)


Relevés horaires à Matro - Lundi 22 Sept. 2014
Heure UTC1 Température [°C] Vent [km/h] Hum. [%] Pres.4 [hPa] Visi. [Km] Nébu. [octa] Préc.5 [mm] Cond.
2m. Res. Ros. Dir.2 Vit. Moy. Raf.3
23:00 1.6 -4.5 -8.6 NNO 31.5 33.3 51.9 47 850(0.3/3h) -- -- -- --
22:00 1.6 -4.7 -7.9 NO 33.3 40.7 64.8 49 850(-0.3/3h) -- -- -- --
21:00 0.7 -6.9 -5.9 NNO 46.3 57.4 85.2 61 850(-0.1/3h) -- -- -- --
20:00 0.8 -7.4 -4.7 NNO 55.6 57.4 85.2 67 850(0.4/3h) -- -- -- --
19:00 1.2 -7 -4.9 NNO 57.4 57.4 77.8 64 850(1.0/3h) -- -- -- --
18:00 1.9 -5.7 -4.3 NNO 51.9 55.6 85.2 63 850(0.7/3h) -- -- -- --
17:00 2.9 -4 -3.8 NNO 46.3 55.6 85.2 61 850(-0.4/3h) -- -- -- --
16:00 5.2 -0.4 -8.7 NO 38.9 44.4 66.7 36 850(-1.3/3h) -- -- -- --
15:00 6.5 1.5 -10.6 NO 37.0 35.2 59.3 28 850(-1.3/3h) -- -- -- --
14:00 6.0 1.4 -9.2 NO 29.6 35.2 53.7 33 850(-0.5/3h) -- -- -- --
13:00 5.7 0.8 -6.8 NNO 31.5 35.2 55.6 40 850(-0.7/3h) -- -- -- --
12:00 6.3 2.5 -6.0 NNO 22.2 48.2 66.7 41 850(-0.2/3h) -- -- -- --
11:00 5.5 -0.2 -5.7 NNO 42.6 40.7 57.4 44 850(-0.5/3h) -- -- -- --
10:00 5.5 1.1 -2.3 NNO 25.9 27.8 50.0 57 850(0.6/3h) -- -- -- --
09:00 4.9 -0.2 -1.6 NNO 31.5 48.2 66.7 63 850(0.4/3h) -- -- -- --
08:00 4.9 0.3 -0.8 NNO 25.9 33.3 48.2 67 850(0.5/3h) -- -- -- --
07:00 4.5 -1.2 -0.2 NO 37.0 48.2 66.7 71 850(0.1/3h) -- -- -- --
06:00 4.4 -1.6 -0.4 NNO 40.7 46.3 63.0 71 850(0.2/3h) -- -- -- --
05:00 4.6 -0.7 -0.7 NNO 33.3 42.6 61.1 68 850(0.0/3h) -- -- -- --
04:00 4.9 -0.6 0.1 NNO 37.0 40.7 55.6 71 850(-0.9/3h) -- -- -- --
03:00 5.3 0.2 0.4 NNO 33.3 46.3 63.0 71 850(-1.1/3h) -- -- -- --
02:00 5.2 -0.7 1.3 NNO 44.4 44.4 63.0 76 850(-0.8/3h) -- -- -- --
01:00 5.9 1.6 1.0 NO 25.9 31.5 44.4 71 850(-0.3/3h) -- -- -- --
00:00 6.2 1.4 1.0 NNO 33.3 40.7 55.6 69 850(-0.4/3h) -- -- -- --

1 Coordinated Universal Time. Actuellement il est 00:00 locale et 22:00 UTC.

2 Le vent souffle depuis la direction indiquée vers la direction oposée.

3 Les rafales max. sont disponible 40 min après l'heure du relevé.

4 Pour les stations d'altitude (plus de 600m) le géopotentiel du niveau le plus proche de la pression obligatoire est indiqué.

5 Les stations disposant d'un diffuseur peuvent indiquer "trace". Cela signifie que des précipitations ont touchés le sol mais que la quantité est inférieure à 0.1 mm.

Copyright

Les données affichées sur cette page sont la propriété exclusive de Météo Suisse.

Récapitulatif de la journée
Température [°C] Vent [km/h] Ensoleillement4 [h] Precipitations totale5 [mm] Pression [Hpa]
Min1 Max.2 Moy.3 Max. Min Max.
4.4 6.5 43.6 85.2 10 h 48 min 0 850.0 850.0

1 Température minimale relevée entre 18:00 UTC la veille et 18:00 UTC le jour donné.

2 Température maximale relevée entre 06:00 UTC le jour donné et 06:00 UTC le lendemain.

3 Vent moyen de la journée basé sur les relevés horaires.

4 Ensoleillement en heures relevé entre 06:00 UTC la veille et 06:00 UTC le jour donné.

5 Précipitations totales tombées entre 06:00 UTC la jour donné et 06:00 UTC le lendemain.

Graphiques horaires